createdAt,value
2019-01-08T00:02:28.192Z,81.30
2019-01-08T00:04:58.537Z,81.40
2019-01-08T00:07:28.910Z,81.60
2019-01-08T00:10:00.379Z,81.90
2019-01-08T00:12:30.745Z,81.80
2019-01-08T00:15:01.105Z,81.80
2019-01-08T00:17:31.441Z,81.90
2019-01-08T00:20:01.795Z,81.80
2019-01-08T00:22:33.187Z,81.90
2019-01-08T00:25:03.492Z,81.70
2019-01-08T00:27:33.831Z,82.00
2019-01-08T00:30:04.623Z,81.90
2019-01-08T00:32:35.017Z,82.00
2019-01-08T00:35:05.893Z,81.90
2019-01-08T00:37:36.251Z,81.70
2019-01-08T00:40:06.643Z,81.60
2019-01-08T00:42:36.967Z,81.60
2019-01-08T00:45:07.385Z,81.70
2019-01-08T00:47:42.069Z,81.60
2019-01-08T00:50:13.531Z,81.70
2019-01-08T00:52:43.892Z,81.90
2019-01-08T00:55:14.239Z,81.60
2019-01-08T00:57:44.557Z,81.10
2019-01-08T01:00:15.263Z,81.20
2019-01-08T01:02:45.565Z,81.40
2019-01-08T01:05:15.915Z,81.10
2019-01-08T01:07:46.251Z,81.00
2019-01-08T01:10:16.694Z,80.80
2019-01-08T01:12:47.049Z,80.90
2019-01-08T01:15:17.853Z,80.70
2019-01-08T01:17:48.223Z,81.00
2019-01-08T01:20:18.522Z,81.50
2019-01-08T01:22:48.848Z,80.80
2019-01-08T01:25:19.164Z,81.00
2019-01-08T01:27:49.519Z,80.50
2019-01-08T01:30:19.826Z,80.40
2019-01-08T01:32:50.187Z,80.50
2019-01-08T01:35:20.493Z,81.50
2019-01-08T01:37:50.815Z,81.00
2019-01-08T01:40:21.145Z,80.80
2019-01-08T01:42:51.506Z,80.80
2019-01-08T01:45:21.919Z,81.10
2019-01-08T01:47:52.357Z,81.20
2019-01-08T01:50:22.719Z,81.00
2019-01-08T01:52:53.405Z,81.10
2019-01-08T01:55:23.749Z,81.20
2019-01-08T01:57:54.178Z,82.20
2019-01-08T02:00:24.559Z,81.50
2019-01-08T02:02:54.883Z,81.30
2019-01-08T02:05:25.217Z,81.30
2019-01-08T02:07:55.565Z,81.30
2019-01-08T02:10:26.001Z,81.60
2019-01-08T02:12:56.357Z,81.80
2019-01-08T02:15:26.703Z,81.90
2019-01-08T02:17:56.988Z,81.60
2019-01-08T02:20:27.273Z,81.90
2019-01-08T02:22:57.631Z,82.00
2019-01-08T02:25:27.954Z,82.10
2019-01-08T02:27:58.339Z,82.30
2019-01-08T02:30:28.663Z,82.20
2019-01-08T02:32:59.067Z,82.50
2019-01-08T02:35:29.383Z,82.80
2019-01-08T02:37:59.689Z,82.70
2019-01-08T02:40:30.171Z,82.90
2019-01-08T02:43:00.497Z,82.70
2019-01-08T02:45:31.810Z,82.50
2019-01-08T02:48:02.142Z,82.80
2019-01-08T02:50:33.441Z,82.90
2019-01-08T02:53:03.823Z,83.20
2019-01-08T02:55:34.174Z,83.30
2019-01-08T02:58:04.545Z,83.20
2019-01-08T03:00:34.869Z,83.30
2019-01-08T03:03:05.271Z,83.60
2019-01-08T03:05:35.601Z,84.00
2019-01-08T03:08:05.931Z,84.00
2019-01-08T03:10:36.257Z,84.20
2019-01-08T03:13:06.664Z,84.30
2019-01-08T03:15:37.002Z,84.40
2019-01-08T03:18:07.309Z,84.80
2019-01-08T03:20:37.645Z,84.20
2019-01-08T03:23:08.033Z,84.10
2019-01-08T03:25:38.539Z,84.40
2019-01-08T03:28:08.937Z,84.70
2019-01-08T03:30:39.249Z,84.60
2019-01-08T03:33:09.583Z,84.50
2019-01-08T03:35:39.887Z,84.80
2019-01-08T03:38:10.242Z,84.80
2019-01-08T03:40:40.583Z,84.90
2019-01-08T03:43:10.941Z,85.20
2019-01-08T03:45:41.343Z,85.40
2019-01-08T03:48:11.693Z,85.00
2019-01-08T03:50:42.099Z,85.70
2019-01-08T03:53:12.457Z,85.10
2019-01-08T03:55:42.842Z,84.90
2019-01-08T03:58:13.145Z,84.80
2019-01-08T04:00:43.521Z,85.30
2019-01-08T04:03:13.821Z,85.00
2019-01-08T04:05:44.208Z,85.50
2019-01-08T04:08:14.670Z,86.80
2019-01-08T04:10:44.966Z,87.50
2019-01-08T04:13:15.369Z,87.50
2019-01-08T04:15:45.667Z,87.20
2019-01-08T04:18:16.012Z,87.00
2019-01-08T04:20:46.373Z,87.10
2019-01-08T04:23:16.734Z,86.10
2019-01-08T04:25:47.049Z,86.20
2019-01-08T04:28:17.377Z,86.20
2019-01-08T04:30:47.815Z,85.50
2019-01-08T04:33:18.165Z,85.70
2019-01-08T04:35:48.577Z,85.70
2019-01-08T04:38:18.970Z,85.40
2019-01-08T04:40:49.921Z,85.60
2019-01-08T04:43:20.295Z,86.20
2019-01-08T04:45:50.737Z,85.90
2019-01-08T04:48:21.123Z,86.10
2019-01-08T04:50:51.519Z,86.30
2019-01-08T04:53:21.843Z,86.60
2019-01-08T04:55:52.192Z,86.30
2019-01-08T04:58:22.501Z,86.60
2019-01-08T05:00:52.821Z,86.90
2019-01-08T05:03:23.165Z,87.10
2019-01-08T05:05:53.663Z,87.00
2019-01-08T05:08:24.070Z,87.20
2019-01-08T05:10:54.426Z,87.50
2019-01-08T05:13:24.751Z,87.70
2019-01-08T05:15:56.115Z,87.70
2019-01-08T05:18:26.435Z,88.10
2019-01-08T05:20:56.768Z,88.20
2019-01-08T05:23:27.111Z,87.90
2019-01-08T05:25:57.517Z,88.00
2019-01-08T05:28:27.905Z,88.10
2019-01-08T05:30:59.250Z,88.20
2019-01-08T05:33:29.597Z,88.50
2019-01-08T05:35:59.969Z,88.80
2019-01-08T05:38:30.348Z,88.50
2019-01-08T05:41:01.743Z,88.70
2019-01-08T05:43:32.098Z,88.70
2019-01-08T05:46:02.443Z,89.10
2019-01-08T05:48:32.879Z,89.30
2019-01-08T05:51:03.223Z,89.60
2019-01-08T05:53:33.537Z,89.70
2019-01-08T05:56:03.867Z,90.10
2019-01-08T05:58:34.201Z,90.10
2019-01-08T06:01:04.611Z,90.20
2019-01-08T06:03:34.989Z,90.30
2019-01-08T06:06:05.355Z,90.50
2019-01-08T06:08:35.791Z,90.60
2019-01-08T06:11:06.169Z,90.80
2019-01-08T06:13:36.515Z,91.00
2019-01-08T06:16:06.909Z,90.90
2019-01-08T06:18:37.293Z,91.10
2019-01-08T06:21:07.651Z,91.30
2019-01-08T06:23:37.969Z,91.40
2019-01-08T06:26:08.305Z,91.50
2019-01-08T06:28:38.665Z,91.60
2019-01-08T06:31:08.971Z,91.50
2019-01-08T06:33:39.320Z,91.80
2019-01-08T06:36:09.607Z,91.60
2019-01-08T06:38:39.967Z,91.70
2019-01-08T06:41:10.297Z,91.50
2019-01-08T06:43:40.643Z,91.70
2019-01-08T06:46:10.998Z,91.80
2019-01-08T06:48:41.484Z,91.70
2019-01-08T06:51:11.826Z,92.00
2019-01-08T06:53:42.131Z,92.20
2019-01-08T06:56:12.481Z,92.30
2019-01-08T06:58:42.796Z,92.60
2019-01-08T07:01:13.130Z,92.70
2019-01-08T07:03:43.499Z,92.90
2019-01-08T07:06:13.824Z,93.20
2019-01-08T07:08:44.216Z,93.20
2019-01-08T07:11:16.027Z,93.80
2019-01-08T07:13:46.375Z,93.80
2019-01-08T07:16:19.104Z,93.50
2019-01-08T07:18:49.469Z,93.50
2019-01-08T07:21:19.853Z,93.90
2019-01-08T07:23:50.199Z,94.00
2019-01-08T07:26:20.518Z,94.30
2019-01-08T07:28:50.812Z,94.60
2019-01-08T07:31:21.151Z,95.30
2019-01-08T07:33:51.657Z,95.20
2019-01-08T07:36:22.033Z,95.50
2019-01-08T07:38:52.444Z,95.90
2019-01-08T07:41:23.107Z,96.30
2019-01-08T07:43:53.526Z,96.40
2019-01-08T07:46:23.835Z,96.20
2019-01-08T07:48:54.265Z,96.60
2019-01-08T07:51:24.596Z,97.00
2019-01-08T07:53:54.927Z,97.10
2019-01-08T07:56:25.325Z,97.20
2019-01-08T07:58:55.635Z,97.30
2019-01-08T08:01:26.029Z,97.40
2019-01-08T08:03:56.363Z,97.60
2019-01-08T08:06:26.694Z,97.60
2019-01-08T08:08:57.112Z,97.80
2019-01-08T08:11:27.798Z,97.70
2019-01-08T08:13:58.200Z,97.80
2019-01-08T08:16:28.577Z,98.10
2019-01-08T08:18:58.934Z,97.90
2019-01-08T08:21:29.300Z,98.10
2019-01-08T08:23:59.672Z,98.10
2019-01-08T08:26:30.058Z,98.30
2019-01-08T08:29:00.432Z,98.30
2019-01-08T08:31:30.766Z,98.70
2019-01-08T08:34:01.125Z,98.80
2019-01-08T08:36:31.464Z,98.80
2019-01-08T08:39:01.798Z,99.10
2019-01-08T08:41:33.918Z,99.00
2019-01-08T08:44:05.331Z,98.80
2019-01-08T08:46:36.741Z,98.70
2019-01-08T08:49:07.181Z,99.10
2019-01-08T08:51:37.562Z,98.90
2019-01-08T08:54:07.906Z,98.90
2019-01-08T08:56:38.249Z,99.00
2019-01-08T08:59:08.677Z,98.90
2019-01-08T09:01:39.028Z,98.60
2019-01-08T09:04:09.413Z,98.70
2019-01-08T09:06:39.788Z,98.90
2019-01-08T09:09:10.232Z,98.90
2019-01-08T09:11:41.407Z,98.60
2019-01-08T09:14:11.745Z,98.60
2019-01-08T09:16:42.061Z,98.90
2019-01-08T09:19:13.976Z,98.60
2019-01-08T09:21:44.344Z,98.50
2019-01-08T09:24:14.719Z,98.60
2019-01-08T09:26:45.113Z,98.60
2019-01-08T09:29:15.428Z,98.60
2019-01-08T09:31:45.810Z,98.60
2019-01-08T09:34:16.076Z,98.70
2019-01-08T09:36:46.432Z,98.90
2019-01-08T09:39:16.757Z,99.30
2019-01-08T09:41:47.854Z,99.10
2019-01-08T09:44:18.230Z,99.40
2019-01-08T09:46:48.577Z,99.20
2019-01-08T09:49:18.968Z,99.10
2019-01-08T09:51:49.474Z,99.20
2019-01-08T09:54:19.872Z,99.40
2019-01-08T09:56:50.206Z,99.50
2019-01-08T09:59:20.502Z,99.20
2019-01-08T10:01:50.878Z,99.50
2019-01-08T10:04:21.204Z,99.40
2019-01-08T10:06:51.557Z,99.50
2019-01-08T10:09:21.886Z,99.30
2019-01-08T10:11:52.338Z,99.40
2019-01-08T10:14:22.653Z,99.60
2019-01-08T10:16:53.004Z,99.20
2019-01-08T10:19:23.322Z,99.40
2019-01-08T10:21:53.677Z,99.50
2019-01-08T10:24:24.058Z,99.70
2019-01-08T10:26:54.393Z,99.70
2019-01-08T10:29:24.735Z,99.70
2019-01-08T10:31:56.062Z,99.70
2019-01-08T10:34:26.406Z,99.90
2019-01-08T10:36:56.729Z,99.90
2019-01-08T10:39:27.087Z,99.90
2019-01-08T10:41:58.849Z,99.50
2019-01-08T10:44:29.182Z,99.90
2019-01-08T10:46:59.517Z,99.90
2019-01-08T10:49:29.902Z,99.30
2019-01-08T10:52:02.253Z,99.70
2019-01-08T10:54:32.406Z,99.80
2019-01-08T10:57:02.722Z,99.90
2019-01-08T10:59:33.045Z,99.90
2019-01-08T11:02:03.737Z,99.90
2019-01-08T11:04:34.093Z,99.90
2019-01-08T11:07:04.436Z,99.90
2019-01-08T11:09:34.805Z,99.90
2019-01-08T11:12:06.660Z,99.90
2019-01-08T11:14:36.994Z,99.80
2019-01-08T11:17:07.336Z,99.90
2019-01-08T11:19:37.718Z,99.90
2019-01-08T11:22:08.050Z,99.90
2019-01-08T11:24:38.396Z,99.90
2019-01-08T11:27:08.809Z,99.90
2019-01-08T11:29:39.102Z,99.90
2019-01-08T11:32:09.494Z,99.90
2019-01-08T11:34:39.965Z,99.90
2019-01-08T11:37:10.488Z,99.90
2019-01-08T11:39:40.838Z,99.90
2019-01-08T11:42:11.413Z,99.90
2019-01-08T11:44:41.773Z,99.90
2019-01-08T11:47:12.098Z,99.90
2019-01-08T11:49:42.420Z,99.90
2019-01-08T11:52:12.831Z,99.90
2019-01-08T11:54:43.184Z,99.90
2019-01-08T11:57:13.544Z,99.90
2019-01-08T11:59:43.863Z,99.90
2019-01-08T12:02:14.237Z,99.90
2019-01-08T12:04:45.532Z,99.90
2019-01-08T12:07:15.986Z,99.90
2019-01-08T12:09:46.288Z,99.90
2019-01-08T12:12:16.708Z,99.90
2019-01-08T12:14:47.058Z,99.90
2019-01-08T12:17:17.402Z,99.90
2019-01-08T12:19:48.814Z,99.90
2019-01-08T12:22:19.450Z,99.90
2019-01-08T12:24:49.788Z,99.90
2019-01-08T12:27:20.138Z,99.90
2019-01-08T12:29:50.478Z,99.90
2019-01-08T12:32:20.904Z,99.90
2019-01-08T12:34:51.231Z,99.90
2019-01-08T12:37:21.595Z,99.90
2019-01-08T12:39:51.958Z,99.90
2019-01-08T12:42:22.371Z,99.90
2019-01-08T12:44:52.706Z,99.90
2019-01-08T12:47:23.061Z,99.90
2019-01-08T12:49:54.488Z,99.90
2019-01-08T12:52:24.960Z,99.90
2019-01-08T12:54:55.294Z,99.90
2019-01-08T12:57:25.685Z,99.90
2019-01-08T12:59:56.123Z,99.90
2019-01-08T13:02:26.463Z,99.90
2019-01-08T13:04:56.797Z,99.90
2019-01-08T13:07:27.184Z,99.90
2019-01-08T13:09:57.549Z,99.90
2019-01-08T13:12:29.242Z,99.90
2019-01-08T13:14:59.653Z,99.90
2019-01-08T13:17:29.978Z,99.90
2019-01-08T13:20:00.299Z,99.90
2019-01-08T13:22:30.683Z,99.90
2019-01-08T13:25:01.292Z,99.90
2019-01-08T13:27:31.745Z,99.90
2019-01-08T13:30:02.152Z,99.90
2019-01-08T13:32:32.468Z,99.90
2019-01-08T13:35:02.859Z,99.90
2019-01-08T13:37:33.190Z,99.90
2019-01-08T13:40:03.552Z,99.90
2019-01-08T13:42:35.163Z,99.90
2019-01-08T13:45:05.800Z,99.90
2019-01-08T13:47:36.145Z,99.90
2019-01-08T13:50:08.094Z,99.90
2019-01-08T13:52:38.530Z,99.90
2019-01-08T13:55:08.966Z,99.90
2019-01-08T13:57:39.321Z,99.90
2019-01-08T14:00:09.728Z,99.90
2019-01-08T14:02:40.129Z,99.90
2019-01-08T14:05:10.702Z,99.90
2019-01-08T14:07:41.070Z,99.90
2019-01-08T14:10:11.411Z,99.90
2019-01-08T14:12:42.364Z,99.90
2019-01-08T14:15:12.742Z,99.90
2019-01-08T14:17:43.147Z,99.90
2019-01-08T14:20:13.529Z,99.90
2019-01-08T14:22:43.923Z,99.90
2019-01-08T14:25:14.283Z,99.90
2019-01-08T14:27:46.291Z,99.90
2019-01-08T14:30:16.661Z,99.90
2019-01-08T14:32:47.152Z,99.90
2019-01-08T14:35:17.485Z,99.90
2019-01-08T14:37:47.832Z,99.90
2019-01-08T14:40:18.151Z,99.90
2019-01-08T14:42:48.633Z,99.90
2019-01-08T14:45:18.937Z,99.90
2019-01-08T14:47:49.293Z,99.90
2019-01-08T14:50:19.597Z,99.90
2019-01-08T14:52:50.070Z,99.90
2019-01-08T14:55:20.406Z,99.90
2019-01-08T14:57:50.763Z,99.90
2019-01-08T15:00:21.140Z,99.90
2019-01-08T15:02:51.538Z,99.90
2019-01-08T15:05:21.893Z,99.90
2019-01-08T15:07:52.258Z,99.90
2019-01-08T15:10:22.595Z,99.90
2019-01-08T15:12:54.416Z,99.90
2019-01-08T15:15:24.809Z,99.90
2019-01-08T15:17:55.191Z,99.90
2019-01-08T15:20:25.551Z,99.90
2019-01-08T15:22:55.911Z,99.90
2019-01-08T15:25:26.310Z,99.90
2019-01-08T15:27:56.627Z,99.90
2019-01-08T15:30:27.090Z,99.90
2019-01-08T15:32:58.690Z,99.90
2019-01-08T15:35:29.053Z,99.90
2019-01-08T15:37:59.352Z,99.90
2019-01-08T15:40:29.686Z,99.90
2019-01-08T15:43:01.132Z,99.90
2019-01-08T15:45:31.513Z,99.90
2019-01-08T15:48:01.813Z,99.90
2019-01-08T15:50:32.190Z,99.90
2019-01-08T15:53:02.549Z,99.90
2019-01-08T15:55:32.943Z,99.90
2019-01-08T15:58:03.256Z,99.90
2019-01-08T16:00:33.583Z,99.90
2019-01-08T16:03:07.441Z,99.90
2019-01-08T16:05:35.903Z,99.90
2019-01-08T16:08:06.199Z,99.90
2019-01-08T16:10:36.623Z,99.90
2019-01-08T16:13:07.787Z,99.90
2019-01-08T16:15:38.177Z,99.90
2019-01-08T16:18:08.428Z,99.90
2019-01-08T16:20:38.777Z,99.90
2019-01-08T16:23:09.111Z,99.90
2019-01-08T16:25:39.449Z,99.90
2019-01-08T16:28:10.732Z,99.90
2019-01-08T16:30:41.060Z,99.90
2019-01-08T16:33:15.849Z,99.90
2019-01-08T16:35:43.607Z,99.90
2019-01-08T16:38:13.947Z,99.90
2019-01-08T16:40:44.303Z,99.90
2019-01-08T16:43:15.374Z,99.90
2019-01-08T16:45:45.742Z,99.90
2019-01-08T16:48:16.085Z,99.90
2019-01-08T16:50:46.460Z,99.90
2019-01-08T16:53:16.844Z,99.90
2019-01-08T16:55:47.221Z,99.90
2019-01-08T16:58:17.530Z,99.90
2019-01-08T17:00:47.890Z,99.90
2019-01-08T17:03:24.780Z,99.90
2019-01-08T17:05:51.193Z,99.90
2019-01-08T17:08:21.512Z,99.90
2019-01-08T17:10:51.831Z,99.90
2019-01-08T17:13:22.801Z,99.90
2019-01-08T17:15:53.119Z,99.90
2019-01-08T17:18:23.515Z,99.90
2019-01-08T17:20:53.822Z,99.90
2019-01-08T17:23:24.224Z,99.90
2019-01-08T17:25:54.550Z,99.90
2019-01-08T17:28:24.942Z,99.90
2019-01-08T17:30:55.252Z,99.90
2019-01-08T17:33:33.568Z,99.90
2019-01-08T17:35:59.162Z,99.90
2019-01-08T17:38:29.497Z,99.90
2019-01-08T17:40:59.811Z,99.90
2019-01-08T17:43:33.627Z,99.90
2019-01-08T17:46:02.767Z,99.90
2019-01-08T17:48:33.153Z,99.90
2019-01-08T17:51:03.561Z,99.90
2019-01-08T17:53:33.982Z,99.90
2019-01-08T17:56:04.396Z,99.90
2019-01-08T17:58:45.652Z,99.90
2019-01-08T18:01:24.575Z,99.90
2019-01-08T18:03:54.953Z,99.90
2019-01-08T18:06:25.267Z,99.90
2019-01-08T18:08:55.636Z,99.90
2019-01-08T18:11:25.965Z,99.90
2019-01-08T18:13:57.119Z,99.90
2019-01-08T18:16:27.472Z,99.90
2019-01-08T18:18:57.807Z,99.90
2019-01-08T18:21:28.197Z,99.90
2019-01-08T18:23:59.630Z,99.90
2019-01-08T18:26:29.942Z,99.90
2019-01-08T18:29:00.286Z,99.90
2019-01-08T18:31:30.611Z,99.90
2019-01-08T18:34:00.952Z,99.90
2019-01-08T18:36:32.468Z,99.90
2019-01-08T18:39:02.822Z,99.90
2019-01-08T18:41:34.783Z,99.90
2019-01-08T18:44:05.871Z,99.90
2019-01-08T18:46:36.189Z,99.90
2019-01-08T18:49:07.903Z,99.90
2019-01-08T18:51:38.334Z,99.90
2019-01-08T18:54:08.939Z,99.90
2019-01-08T18:56:39.269Z,99.90
2019-01-08T18:59:09.631Z,99.90
2019-01-08T19:01:39.949Z,99.90
2019-01-08T19:04:10.311Z,99.90
2019-01-08T19:06:40.646Z,99.90
2019-01-08T19:09:34.313Z,99.90
2019-01-08T19:12:05.808Z,99.90
2019-01-08T19:14:41.145Z,99.90
2019-01-08T19:17:11.522Z,99.90
2019-01-08T19:19:41.892Z,99.90
2019-01-08T19:22:12.300Z,99.90
2019-01-08T19:24:42.615Z,99.90
2019-01-08T19:27:12.928Z,99.90
2019-01-08T19:29:43.254Z,99.90
2019-01-08T19:32:13.624Z,99.90
2019-01-08T19:34:44.908Z,99.90
2019-01-08T19:37:15.375Z,99.90
2019-01-08T19:39:45.673Z,99.90
2019-01-08T19:42:16.064Z,99.90
2019-01-08T19:44:46.890Z,99.90
2019-01-08T19:47:17.229Z,99.90
2019-01-08T19:49:47.602Z,99.90
2019-01-08T19:52:17.941Z,99.90
2019-01-08T19:54:48.348Z,99.90
2019-01-08T19:57:18.646Z,99.90
2019-01-08T19:59:48.972Z,99.90
2019-01-08T20:02:19.320Z,99.90
2019-01-08T20:04:49.710Z,99.90
2019-01-08T20:07:20.078Z,99.90
2019-01-08T20:09:50.414Z,99.90
2019-01-08T20:12:20.786Z,99.90
2019-01-08T20:14:52.398Z,99.90
2019-01-08T20:17:22.749Z,99.90
2019-01-08T20:19:53.086Z,99.90
2019-01-08T20:22:23.492Z,99.90
2019-01-08T20:24:53.810Z,99.90
2019-01-08T20:27:24.172Z,99.90
2019-01-08T20:29:54.544Z,99.90
2019-01-08T20:32:24.906Z,99.90
2019-01-08T20:34:55.296Z,99.90
2019-01-08T20:37:25.712Z,99.90
2019-01-08T20:39:56.097Z,99.90
2019-01-08T20:42:26.412Z,99.90
2019-01-08T20:44:56.772Z,99.90
2019-01-08T20:47:27.123Z,99.90
2019-01-08T20:49:57.549Z,99.90
2019-01-08T20:52:27.859Z,99.90
2019-01-08T20:54:58.306Z,99.90
2019-01-08T20:57:28.699Z,99.90
2019-01-08T20:59:59.013Z,99.90
2019-01-08T21:02:29.398Z,99.90
2019-01-08T21:04:59.716Z,99.90
2019-01-08T21:07:30.088Z,99.70
2019-01-08T21:10:00.414Z,99.90
2019-01-08T21:12:30.793Z,99.80
2019-01-08T21:15:02.471Z,99.90
2019-01-08T21:17:32.894Z,99.80
2019-01-08T21:20:03.202Z,99.90
2019-01-08T21:22:33.608Z,99.90
2019-01-08T21:25:03.961Z,99.50
2019-01-08T21:27:34.370Z,99.50
2019-01-08T21:30:05.508Z,99.10
2019-01-08T21:32:35.851Z,99.30
2019-01-08T21:35:06.155Z,99.30
2019-01-08T21:37:36.568Z,99.30
2019-01-08T21:40:07.458Z,99.20
2019-01-08T21:42:37.814Z,99.20
2019-01-08T21:45:09.382Z,99.10
2019-01-08T21:47:40.833Z,99.20
2019-01-08T21:50:11.152Z,99.40
2019-01-08T21:52:41.499Z,99.40
2019-01-08T21:55:11.882Z,99.10
2019-01-08T21:57:42.353Z,99.10
2019-01-08T22:00:12.746Z,99.20
2019-01-08T22:02:43.156Z,99.10
2019-01-08T22:05:13.540Z,98.80
2019-01-08T22:07:43.898Z,98.60
2019-01-08T22:10:14.252Z,98.90
2019-01-08T22:12:44.588Z,99.00
2019-01-08T22:15:16.642Z,99.20
2019-01-08T22:17:47.048Z,99.10
2019-01-08T22:20:17.380Z,99.10
2019-01-08T22:22:52.497Z,98.90
2019-01-08T22:25:19.763Z,99.00
2019-01-08T22:27:50.066Z,99.00
2019-01-08T22:30:20.457Z,98.60
2019-01-08T22:32:50.744Z,98.80
2019-01-08T22:35:21.108Z,98.80
2019-01-08T22:37:51.425Z,98.70
2019-01-08T22:40:21.848Z,98.50
2019-01-08T22:42:52.172Z,98.60
2019-01-08T22:45:23.782Z,98.70
2019-01-08T22:47:54.220Z,98.40
2019-01-08T22:50:24.556Z,98.60
2019-01-08T22:52:54.880Z,98.50
2019-01-08T22:55:25.234Z,98.50
2019-01-08T22:57:55.615Z,98.40
2019-01-08T23:00:44.185Z,98.30
2019-01-08T23:03:14.536Z,98.30
2019-01-08T23:05:44.832Z,98.40
2019-01-08T23:08:15.349Z,98.20
2019-01-08T23:10:45.779Z,98.40
2019-01-08T23:13:16.536Z,98.40
2019-01-08T23:15:47.938Z,98.10
2019-01-08T23:18:18.247Z,98.20
2019-01-08T23:20:48.602Z,98.10
2019-01-08T23:23:18.952Z,98.10
2019-01-08T23:25:49.390Z,97.90
2019-01-08T23:28:19.735Z,97.90
2019-01-08T23:30:50.087Z,98.10
2019-01-08T23:33:20.484Z,97.90
2019-01-08T23:35:50.859Z,98.00
2019-01-08T23:38:21.222Z,97.90
2019-01-08T23:40:51.666Z,97.90
2019-01-08T23:43:22.038Z,97.70
2019-01-08T23:45:52.382Z,97.60
2019-01-08T23:48:22.790Z,97.40
2019-01-08T23:50:53.165Z,97.40
2019-01-08T23:53:39.514Z,97.50
2019-01-08T23:56:10.270Z,97.50
2019-01-08T23:58:40.691Z,97.70
